sensor_id;sensor_type;location;lat;lon;timestamp;temperature;humidity
68235;DHT22;55052;52.056;5.296;2023-10-08T00:00:49;19.90;87.90
68235;DHT22;55052;52.056;5.296;2023-10-08T00:03:16;19.90;87.90
68235;DHT22;55052;52.056;5.296;2023-10-08T00:05:44;19.80;87.90
68235;DHT22;55052;52.056;5.296;2023-10-08T00:08:13;19.80;88.00
68235;DHT22;55052;52.056;5.296;2023-10-08T00:10:43;19.90;88.10
68235;DHT22;55052;52.056;5.296;2023-10-08T00:13:12;19.80;88.50
68235;DHT22;55052;52.056;5.296;2023-10-08T00:15:40;19.80;88.10
68235;DHT22;55052;52.056;5.296;2023-10-08T00:18:16;19.80;88.00
68235;DHT22;55052;52.056;5.296;2023-10-08T00:20:44;19.80;88.00
68235;DHT22;55052;52.056;5.296;2023-10-08T00:23:29;19.80;88.00
68235;DHT22;55052;52.056;5.296;2023-10-08T00:25:57;19.80;88.10
68235;DHT22;55052;52.056;5.296;2023-10-08T00:28:24;19.80;88.10
68235;DHT22;55052;52.056;5.296;2023-10-08T00:30:55;19.80;88.10
68235;DHT22;55052;52.056;5.296;2023-10-08T00:33:22;19.70;87.90
68235;DHT22;55052;52.056;5.296;2023-10-08T00:35:48;19.70;88.20
68235;DHT22;55052;52.056;5.296;2023-10-08T00:38:16;19.70;88.30
68235;DHT22;55052;52.056;5.296;2023-10-08T00:40:47;19.70;88.20
68235;DHT22;55052;52.056;5.296;2023-10-08T00:43:32;19.70;88.30
68235;DHT22;55052;52.056;5.296;2023-10-08T00:46:04;19.70;88.20
68235;DHT22;55052;52.056;5.296;2023-10-08T00:48:46;19.60;88.30
68235;DHT22;55052;52.056;5.296;2023-10-08T00:51:14;19.60;89.10
68235;DHT22;55052;52.056;5.296;2023-10-08T00:54:00;19.60;88.20
68235;DHT22;55052;52.056;5.296;2023-10-08T00:56:33;19.60;88.20
68235;DHT22;55052;52.056;5.296;2023-10-08T00:59:16;19.60;88.20
68235;DHT22;55052;52.056;5.296;2023-10-08T01:01:44;19.60;88.20
68235;DHT22;55052;52.056;5.296;2023-10-08T01:04:19;19.60;88.30
68235;DHT22;55052;52.056;5.296;2023-10-08T01:06:54;19.50;88.20
68235;DHT22;55052;52.056;5.296;2023-10-08T01:09:26;19.50;88.30
68235;DHT22;55052;52.056;5.296;2023-10-08T01:12:15;19.50;88.30
68235;DHT22;55052;52.056;5.296;2023-10-08T01:14:43;19.50;88.20
68235;DHT22;55052;52.056;5.296;2023-10-08T01:17:10;19.40;88.30
68235;DHT22;55052;52.056;5.296;2023-10-08T01:19:44;19.40;88.30
68235;DHT22;55052;52.056;5.296;2023-10-08T01:22:12;19.40;88.30
68235;DHT22;55052;52.056;5.296;2023-10-08T01:24:45;19.40;88.30
68235;DHT22;55052;52.056;5.296;2023-10-08T01:27:16;19.40;88.30
68235;DHT22;55052;52.056;5.296;2023-10-08T01:29:51;19.40;88.40
68235;DHT22;55052;52.056;5.296;2023-10-08T01:32:20;19.30;88.40
68235;DHT22;55052;52.056;5.296;2023-10-08T01:34:49;19.30;88.50
68235;DHT22;55052;52.056;5.296;2023-10-08T01:37:17;19.30;88.50
68235;DHT22;55052;52.056;5.296;2023-10-08T01:39:45;19.30;88.60
68235;DHT22;55052;52.056;5.296;2023-10-08T01:42:12;19.30;88.70
68235;DHT22;55052;52.056;5.296;2023-10-08T01:44:50;19.30;88.90
68235;DHT22;55052;52.056;5.296;2023-10-08T01:47:22;19.30;88.90
68235;DHT22;55052;52.056;5.296;2023-10-08T01:49:52;19.20;89.00
68235;DHT22;55052;52.056;5.296;2023-10-08T01:52:27;19.20;89.00
68235;DHT22;55052;52.056;5.296;2023-10-08T01:54:54;19.20;89.10
68235;DHT22;55052;52.056;5.296;2023-10-08T01:57:20;19.20;89.20
68235;DHT22;55052;52.056;5.296;2023-10-08T01:59:47;19.20;89.20
68235;DHT22;55052;52.056;5.296;2023-10-08T02:02:15;19.20;89.40
68235;DHT22;55052;52.056;5.296;2023-10-08T02:04:42;19.20;89.40
68235;DHT22;55052;52.056;5.296;2023-10-08T02:07:11;19.20;89.40
68235;DHT22;55052;52.056;5.296;2023-10-08T02:09:40;19.20;89.40
68235;DHT22;55052;52.056;5.296;2023-10-08T02:12:07;19.20;89.50
68235;DHT22;55052;52.056;5.296;2023-10-08T02:14:34;19.20;89.50
68235;DHT22;55052;52.056;5.296;2023-10-08T02:17:02;19.20;89.50
68235;DHT22;55052;52.056;5.296;2023-10-08T02:19:32;19.20;89.60
68235;DHT22;55052;52.056;5.296;2023-10-08T02:22:01;19.20;89.60
68235;DHT22;55052;52.056;5.296;2023-10-08T02:24:30;19.20;89.60
68235;DHT22;55052;52.056;5.296;2023-10-08T02:26:57;19.20;89.70
68235;DHT22;55052;52.056;5.296;2023-10-08T02:29:27;19.20;89.60
68235;DHT22;55052;52.056;5.296;2023-10-08T02:31:54;19.20;89.70
68235;DHT22;55052;52.056;5.296;2023-10-08T02:34:21;19.20;89.70
68235;DHT22;55052;52.056;5.296;2023-10-08T02:36:48;19.20;89.70
68235;DHT22;55052;52.056;5.296;2023-10-08T02:39:15;19.20;89.70
68235;DHT22;55052;52.056;5.296;2023-10-08T02:41:49;19.20;89.70
68235;DHT22;55052;52.056;5.296;2023-10-08T02:44:16;19.20;89.70
68235;DHT22;55052;52.056;5.296;2023-10-08T02:46:45;19.20;89.70
68235;DHT22;55052;52.056;5.296;2023-10-08T02:49:19;19.20;89.80
68235;DHT22;55052;52.056;5.296;2023-10-08T02:51:48;19.20;89.80
68235;DHT22;55052;52.056;5.296;2023-10-08T02:54:18;19.10;89.80
68235;DHT22;55052;52.056;5.296;2023-10-08T02:56:50;19.10;89.80
68235;DHT22;55052;52.056;5.296;2023-10-08T02:59:32;19.10;89.90
68235;DHT22;55052;52.056;5.296;2023-10-08T03:02:10;19.10;89.90
68235;DHT22;55052;52.056;5.296;2023-10-08T03:04:49;19.10;89.90
68235;DHT22;55052;52.056;5.296;2023-10-08T03:07:19;19.10;89.90
68235;DHT22;55052;52.056;5.296;2023-10-08T03:09:50;19.00;89.80
68235;DHT22;55052;52.056;5.296;2023-10-08T03:12:18;19.00;89.80
68235;DHT22;55052;52.056;5.296;2023-10-08T03:14:45;19.00;89.80
68235;DHT22;55052;52.056;5.296;2023-10-08T03:17:30;19.00;89.80
68235;DHT22;55052;52.056;5.296;2023-10-08T03:20:04;19.00;90.00
68235;DHT22;55052;52.056;5.296;2023-10-08T03:22:51;19.00;90.00
68235;DHT22;55052;52.056;5.296;2023-10-08T03:25:19;18.90;90.00
68235;DHT22;55052;52.056;5.296;2023-10-08T03:27:46;18.90;90.00
68235;DHT22;55052;52.056;5.296;2023-10-08T03:30:15;18.90;90.00
68235;DHT22;55052;52.056;5.296;2023-10-08T03:32:43;18.90;90.00
68235;DHT22;55052;52.056;5.296;2023-10-08T03:35:17;18.90;90.00
68235;DHT22;55052;52.056;5.296;2023-10-08T03:37:54;18.80;90.00
68235;DHT22;55052;52.056;5.296;2023-10-08T03:40:41;18.80;90.00
68235;DHT22;55052;52.056;5.296;2023-10-08T03:43:12;18.80;90.00
68235;DHT22;55052;52.056;5.296;2023-10-08T03:45:50;18.70;89.90
68235;DHT22;55052;52.056;5.296;2023-10-08T03:48:26;18.70;90.00
68235;DHT22;55052;52.056;5.296;2023-10-08T03:50:56;18.70;90.10
68235;DHT22;55052;52.056;5.296;2023-10-08T03:53:33;18.70;90.10
68235;DHT22;55052;52.056;5.296;2023-10-08T03:56:15;18.70;90.10
68235;DHT22;55052;52.056;5.296;2023-10-08T03:58:46;18.70;90.20
68235;DHT22;55052;52.056;5.296;2023-10-08T04:01:13;18.60;90.20
68235;DHT22;55052;52.056;5.296;2023-10-08T04:03:45;18.60;90.20
68235;DHT22;55052;52.056;5.296;2023-10-08T04:06:22;18.60;90.20
68235;DHT22;55052;52.056;5.296;2023-10-08T04:08:55;18.60;90.20
68235;DHT22;55052;52.056;5.296;2023-10-08T04:11:39;18.60;90.20
68235;DHT22;55052;52.056;5.296;2023-10-08T04:14:25;18.60;90.20
68235;DHT22;55052;52.056;5.296;2023-10-08T04:16:52;18.60;90.20
68235;DHT22;55052;52.056;5.296;2023-10-08T04:19:20;18.60;90.20
68235;DHT22;55052;52.056;5.296;2023-10-08T04:21:48;18.60;90.20
68235;DHT22;55052;52.056;5.296;2023-10-08T04:24:27;18.50;90.20
68235;DHT22;55052;52.056;5.296;2023-10-08T04:27:02;18.50;90.20
68235;DHT22;55052;52.056;5.296;2023-10-08T04:29:36;18.50;90.20
68235;DHT22;55052;52.056;5.296;2023-10-08T04:32:08;18.50;90.20
68235;DHT22;55052;52.056;5.296;2023-10-08T04:34:38;18.50;90.30
68235;DHT22;55052;52.056;5.296;2023-10-08T04:37:11;18.50;90.30
68235;DHT22;55052;52.056;5.296;2023-10-08T04:39:45;18.50;90.70
68235;DHT22;55052;52.056;5.296;2023-10-08T04:42:14;18.50;90.30
68235;DHT22;55052;52.056;5.296;2023-10-08T04:44:52;18.40;90.30
68235;DHT22;55052;52.056;5.296;2023-10-08T04:47:21;18.40;90.20
68235;DHT22;55052;52.056;5.296;2023-10-08T04:50:01;18.40;90.50
68235;DHT22;55052;52.056;5.296;2023-10-08T04:52:31;18.40;90.50
68235;DHT22;55052;52.056;5.296;2023-10-08T04:55:00;18.40;90.50
68235;DHT22;55052;52.056;5.296;2023-10-08T04:57:39;18.40;90.60
68235;DHT22;55052;52.056;5.296;2023-10-08T05:00:10;18.40;90.60
68235;DHT22;55052;52.056;5.296;2023-10-08T05:02:42;18.30;91.00
68235;DHT22;55052;52.056;5.296;2023-10-08T05:05:20;18.30;90.60
68235;DHT22;55052;52.056;5.296;2023-10-08T05:07:47;18.30;90.70
68235;DHT22;55052;52.056;5.296;2023-10-08T05:10:14;18.30;90.70
68235;DHT22;55052;52.056;5.296;2023-10-08T05:12:50;18.30;90.70
68235;DHT22;55052;52.056;5.296;2023-10-08T05:15:27;18.30;90.70
68235;DHT22;55052;52.056;5.296;2023-10-08T05:18:04;18.30;90.70
68235;DHT22;55052;52.056;5.296;2023-10-08T05:20:50;18.20;90.70
68235;DHT22;55052;52.056;5.296;2023-10-08T05:23:19;18.20;91.10
68235;DHT22;55052;52.056;5.296;2023-10-08T05:25:53;18.20;90.70
68235;DHT22;55052;52.056;5.296;2023-10-08T05:28:33;18.20;90.70
68235;DHT22;55052;52.056;5.296;2023-10-08T05:31:08;18.20;90.90
68235;DHT22;55052;52.056;5.296;2023-10-08T05:33:58;18.10;90.70
68235;DHT22;55052;52.056;5.296;2023-10-08T05:36:50;18.00;90.70
68235;DHT22;55052;52.056;5.296;2023-10-08T05:39:35;18.00;90.80
68235;DHT22;55052;52.056;5.296;2023-10-08T05:42:21;18.00;90.80
68235;DHT22;55052;52.056;5.296;2023-10-08T05:44:58;17.90;90.80
68235;DHT22;55052;52.056;5.296;2023-10-08T05:47:37;17.90;91.00
68235;DHT22;55052;52.056;5.296;2023-10-08T05:50:05;17.90;90.80
68235;DHT22;55052;52.056;5.296;2023-10-08T05:52:44;17.90;90.80
68235;DHT22;55052;52.056;5.296;2023-10-08T05:55:19;17.80;90.80
68235;DHT22;55052;52.056;5.296;2023-10-08T05:57:54;17.70;90.80
68235;DHT22;55052;52.056;5.296;2023-10-08T06:00:47;17.60;90.80
68235;DHT22;55052;52.056;5.296;2023-10-08T06:03:17;17.50;90.90
68235;DHT22;55052;52.056;5.296;2023-10-08T06:06:07;17.50;90.90
68235;DHT22;55052;52.056;5.296;2023-10-08T06:08:41;17.40;90.90
68235;DHT22;55052;52.056;5.296;2023-10-08T06:11:26;17.40;91.00
68235;DHT22;55052;52.056;5.296;2023-10-08T06:14:23;17.40;91.00
68235;DHT22;55052;52.056;5.296;2023-10-08T06:17:15;17.40;91.00
68235;DHT22;55052;52.056;5.296;2023-10-08T06:20:11;17.30;90.90
68235;DHT22;55052;52.056;5.296;2023-10-08T06:22:43;17.30;90.80
68235;DHT22;55052;52.056;5.296;2023-10-08T06:25:11;17.20;90.70
68235;DHT22;55052;52.056;5.296;2023-10-08T06:27:45;17.20;90.60
68235;DHT22;55052;52.056;5.296;2023-10-08T06:30:12;17.10;90.50
68235;DHT22;55052;52.056;5.296;2023-10-08T06:32:44;17.10;90.40
68235;DHT22;55052;52.056;5.296;2023-10-08T06:35:12;17.00;90.30
68235;DHT22;55052;52.056;5.296;2023-10-08T06:37:45;16.90;90.20
68235;DHT22;55052;52.056;5.296;2023-10-08T06:40:12;16.80;90.10
68235;DHT22;55052;52.056;5.296;2023-10-08T06:42:59;16.80;90.10
68235;DHT22;55052;52.056;5.296;2023-10-08T06:45:30;16.70;90.00
68235;DHT22;55052;52.056;5.296;2023-10-08T06:47:59;16.70;90.00
68235;DHT22;55052;52.056;5.296;2023-10-08T06:50:27;16.60;90.00
68235;DHT22;55052;52.056;5.296;2023-10-08T06:52:56;16.60;90.00
68235;DHT22;55052;52.056;5.296;2023-10-08T06:55:23;16.50;90.00
68235;DHT22;55052;52.056;5.296;2023-10-08T06:57:53;16.50;89.90
68235;DHT22;55052;52.056;5.296;2023-10-08T07:00:20;16.50;90.00
68235;DHT22;55052;52.056;5.296;2023-10-08T07:03:08;16.50;90.00
68235;DHT22;55052;52.056;5.296;2023-10-08T07:05:37;16.40;90.00
68235;DHT22;55052;52.056;5.296;2023-10-08T07:08:08;16.40;90.00
68235;DHT22;55052;52.056;5.296;2023-10-08T07:10:35;16.40;90.00
68235;DHT22;55052;52.056;5.296;2023-10-08T07:13:02;16.40;89.90
68235;DHT22;55052;52.056;5.296;2023-10-08T07:15:34;16.30;89.80
68235;DHT22;55052;52.056;5.296;2023-10-08T07:18:05;16.30;89.70
68235;DHT22;55052;52.056;5.296;2023-10-08T07:20:37;16.30;89.70
68235;DHT22;55052;52.056;5.296;2023-10-08T07:23:09;16.30;89.70
68235;DHT22;55052;52.056;5.296;2023-10-08T07:25:57;16.30;89.80
68235;DHT22;55052;52.056;5.296;2023-10-08T07:28:41;16.30;89.80
68235;DHT22;55052;52.056;5.296;2023-10-08T07:31:14;16.30;89.80
68235;DHT22;55052;52.056;5.296;2023-10-08T07:33:50;16.30;89.80
68235;DHT22;55052;52.056;5.296;2023-10-08T07:36:27;16.30;90.20
68235;DHT22;55052;52.056;5.296;2023-10-08T07:38:54;16.30;89.70
68235;DHT22;55052;52.056;5.296;2023-10-08T07:41:21;16.20;89.70
68235;DHT22;55052;52.056;5.296;2023-10-08T07:43:49;16.30;89.80
68235;DHT22;55052;52.056;5.296;2023-10-08T07:46:25;16.30;89.80
68235;DHT22;55052;52.056;5.296;2023-10-08T07:48:54;16.30;89.90
68235;DHT22;55052;52.056;5.296;2023-10-08T07:51:21;16.30;89.80
68235;DHT22;55052;52.056;5.296;2023-10-08T07:53:51;16.30;89.80
68235;DHT22;55052;52.056;5.296;2023-10-08T07:56:23;16.30;89.80
68235;DHT22;55052;52.056;5.296;2023-10-08T07:58:53;16.30;89.90
68235;DHT22;55052;52.056;5.296;2023-10-08T08:01:24;16.30;89.90
68235;DHT22;55052;52.056;5.296;2023-10-08T08:03:53;16.30;89.90
68235;DHT22;55052;52.056;5.296;2023-10-08T08:06:21;16.40;89.90
68235;DHT22;55052;52.056;5.296;2023-10-08T08:08:49;16.30;89.80
68235;DHT22;55052;52.056;5.296;2023-10-08T08:11:16;16.40;90.30
68235;DHT22;55052;52.056;5.296;2023-10-08T08:13:45;16.40;89.70
68235;DHT22;55052;52.056;5.296;2023-10-08T08:16:13;16.40;90.20
68235;DHT22;55052;52.056;5.296;2023-10-08T08:18:49;16.30;89.70
68235;DHT22;55052;52.056;5.296;2023-10-08T08:21:16;16.30;89.70
68235;DHT22;55052;52.056;5.296;2023-10-08T08:23:47;16.30;89.70
68235;DHT22;55052;52.056;5.296;2023-10-08T08:26:22;16.40;89.70
68235;DHT22;55052;52.056;5.296;2023-10-08T08:28:57;16.40;89.80
68235;DHT22;55052;52.056;5.296;2023-10-08T08:31:27;16.40;89.80
68235;DHT22;55052;52.056;5.296;2023-10-08T08:33:54;16.40;89.90
68235;DHT22;55052;52.056;5.296;2023-10-08T08:36:24;16.40;89.80
68235;DHT22;55052;52.056;5.296;2023-10-08T08:38:51;16.40;89.70
68235;DHT22;55052;52.056;5.296;2023-10-08T08:41:19;16.40;89.80
68235;DHT22;55052;52.056;5.296;2023-10-08T08:43:48;16.40;89.60
68235;DHT22;55052;52.056;5.296;2023-10-08T08:46:16;16.40;89.40
68235;DHT22;55052;52.056;5.296;2023-10-08T08:48:44;16.40;89.40
68235;DHT22;55052;52.056;5.296;2023-10-08T08:51:14;16.50;89.40
68235;DHT22;55052;52.056;5.296;2023-10-08T08:53:41;16.40;89.30
68235;DHT22;55052;52.056;5.296;2023-10-08T08:56:09;16.50;89.20
68235;DHT22;55052;52.056;5.296;2023-10-08T08:58:37;16.50;89.20
68235;DHT22;55052;52.056;5.296;2023-10-08T09:01:10;16.50;89.10
68235;DHT22;55052;52.056;5.296;2023-10-08T09:03:39;16.50;89.00
68235;DHT22;55052;52.056;5.296;2023-10-08T09:06:06;16.50;88.90
68235;DHT22;55052;52.056;5.296;2023-10-08T09:08:37;16.60;88.90
68235;DHT22;55052;52.056;5.296;2023-10-08T09:11:14;16.60;88.70
68235;DHT22;55052;52.056;5.296;2023-10-08T09:13:41;16.60;88.40
68235;DHT22;55052;52.056;5.296;2023-10-08T09:16:16;16.60;88.50
68235;DHT22;55052;52.056;5.296;2023-10-08T09:18:44;16.70;88.50
68235;DHT22;55052;52.056;5.296;2023-10-08T09:21:16;16.70;88.50
68235;DHT22;55052;52.056;5.296;2023-10-08T09:23:52;16.70;88.50
68235;DHT22;55052;52.056;5.296;2023-10-08T09:26:24;16.70;88.50
68235;DHT22;55052;52.056;5.296;2023-10-08T09:28:52;16.80;88.50
68235;DHT22;55052;52.056;5.296;2023-10-08T09:31:23;16.80;88.30
68235;DHT22;55052;52.056;5.296;2023-10-08T09:33:54;16.90;88.30
68235;DHT22;55052;52.056;5.296;2023-10-08T09:36:22;16.90;88.10
68235;DHT22;55052;52.056;5.296;2023-10-08T09:39:02;16.90;88.00
68235;DHT22;55052;52.056;5.296;2023-10-08T09:41:34;17.00;87.90
68235;DHT22;55052;52.056;5.296;2023-10-08T09:44:03;17.00;88.00
68235;DHT22;55052;52.056;5.296;2023-10-08T09:46:32;17.00;87.90
68235;DHT22;55052;52.056;5.296;2023-10-08T09:49:03;17.00;87.90
68235;DHT22;55052;52.056;5.296;2023-10-08T09:51:37;17.00;87.80
68235;DHT22;55052;52.056;5.296;2023-10-08T09:56:39;17.10;87.60
68235;DHT22;55052;52.056;5.296;2023-10-08T09:59:07;17.10;87.60
68235;DHT22;55052;52.056;5.296;2023-10-08T10:01:38;17.10;87.50
68235;DHT22;55052;52.056;5.296;2023-10-08T10:04:09;17.20;87.50
68235;DHT22;55052;52.056;5.296;2023-10-08T10:06:38;17.20;87.40
68235;DHT22;55052;52.056;5.296;2023-10-08T10:09:06;17.20;88.10
68235;DHT22;55052;52.056;5.296;2023-10-08T10:11:48;17.20;87.40
68235;DHT22;55052;52.056;5.296;2023-10-08T10:14:22;17.20;87.40
68235;DHT22;55052;52.056;5.296;2023-10-08T10:17:19;17.20;87.50
68235;DHT22;55052;52.056;5.296;2023-10-08T10:20:09;17.30;87.40
68235;DHT22;55052;52.056;5.296;2023-10-08T10:22:41;17.30;87.40
68235;DHT22;55052;52.056;5.296;2023-10-08T10:25:10;17.30;87.30
68235;DHT22;55052;52.056;5.296;2023-10-08T10:30:22;17.30;87.40
68235;DHT22;55052;52.056;5.296;2023-10-08T10:32:54;17.40;87.50
68235;DHT22;55052;52.056;5.296;2023-10-08T10:35:21;17.40;87.40
68235;DHT22;55052;52.056;5.296;2023-10-08T10:37:50;17.40;87.40
68235;DHT22;55052;52.056;5.296;2023-10-08T10:40:23;17.40;87.50
68235;DHT22;55052;52.056;5.296;2023-10-08T10:43:06;17.50;87.60
68235;DHT22;55052;52.056;5.296;2023-10-08T10:45:33;17.50;87.50
68235;DHT22;55052;52.056;5.296;2023-10-08T10:48:05;17.50;87.50
68235;DHT22;55052;52.056;5.296;2023-10-08T10:50:41;17.50;87.30
68235;DHT22;55052;52.056;5.296;2023-10-08T10:53:26;17.50;87.60
68235;DHT22;55052;52.056;5.296;2023-10-08T10:55:54;17.50;87.60
68235;DHT22;55052;52.056;5.296;2023-10-08T10:58:32;17.50;87.50
68235;DHT22;55052;52.056;5.296;2023-10-08T11:01:06;17.50;88.30
68235;DHT22;55052;52.056;5.296;2023-10-08T11:03:51;17.50;87.40
68235;DHT22;55052;52.056;5.296;2023-10-08T11:06:19;17.50;87.50
68235;DHT22;55052;52.056;5.296;2023-10-08T11:08:53;17.50;87.50
68235;DHT22;55052;52.056;5.296;2023-10-08T11:11:26;17.50;87.50
68235;DHT22;55052;52.056;5.296;2023-10-08T11:13:58;17.50;87.40
68235;DHT22;55052;52.056;5.296;2023-10-08T11:16:27;17.50;88.30
68235;DHT22;55052;52.056;5.296;2023-10-08T11:18:58;17.50;87.50
68235;DHT22;55052;52.056;5.296;2023-10-08T11:21:28;17.50;87.40
68235;DHT22;55052;52.056;5.296;2023-10-08T11:24:00;17.50;87.40
68235;DHT22;55052;52.056;5.296;2023-10-08T11:26:36;17.50;87.40
68235;DHT22;55052;52.056;5.296;2023-10-08T11:29:15;17.60;87.50
68235;DHT22;55052;52.056;5.296;2023-10-08T11:31:51;17.60;87.50
68235;DHT22;55052;52.056;5.296;2023-10-08T11:34:20;17.60;87.60
68235;DHT22;55052;52.056;5.296;2023-10-08T11:36:54;17.60;87.60
68235;DHT22;55052;52.056;5.296;2023-10-08T11:39:23;17.60;87.60
68235;DHT22;55052;52.056;5.296;2023-10-08T11:42:03;17.60;88.50
68235;DHT22;55052;52.056;5.296;2023-10-08T11:44:49;17.70;87.70
68235;DHT22;55052;52.056;5.296;2023-10-08T11:47:19;17.60;87.60
68235;DHT22;55052;52.056;5.296;2023-10-08T11:49:48;17.60;87.60
68235;DHT22;55052;52.056;5.296;2023-10-08T11:52:25;17.70;87.70
68235;DHT22;55052;52.056;5.296;2023-10-08T11:54:52;17.70;87.60
68235;DHT22;55052;52.056;5.296;2023-10-08T11:57:20;17.70;88.40
68235;DHT22;55052;52.056;5.296;2023-10-08T11:59:49;17.80;87.60
68235;DHT22;55052;52.056;5.296;2023-10-08T12:02:20;17.70;87.40
68235;DHT22;55052;52.056;5.296;2023-10-08T12:04:47;17.80;87.30
68235;DHT22;55052;52.056;5.296;2023-10-08T12:07:15;17.80;87.30
68235;DHT22;55052;52.056;5.296;2023-10-08T12:09:44;17.80;87.30
68235;DHT22;55052;52.056;5.296;2023-10-08T12:12:16;17.90;87.20
68235;DHT22;55052;52.056;5.296;2023-10-08T12:14:45;17.90;87.30
68235;DHT22;55052;52.056;5.296;2023-10-08T12:17:14;17.90;87.20
68235;DHT22;55052;52.056;5.296;2023-10-08T12:19:43;17.90;87.20
68235;DHT22;55052;52.056;5.296;2023-10-08T12:22:11;18.00;87.20
68235;DHT22;55052;52.056;5.296;2023-10-08T12:24:44;18.10;87.10
68235;DHT22;55052;52.056;5.296;2023-10-08T12:27:11;18.20;86.70
68235;DHT22;55052;52.056;5.296;2023-10-08T12:29:39;18.30;86.70
68235;DHT22;55052;52.056;5.296;2023-10-08T12:32:05;18.30;86.40
68235;DHT22;55052;52.056;5.296;2023-10-08T12:34:44;18.40;86.30
68235;DHT22;55052;52.056;5.296;2023-10-08T12:37:11;18.40;86.00
68235;DHT22;55052;52.056;5.296;2023-10-08T12:39:41;18.40;85.70
68235;DHT22;55052;52.056;5.296;2023-10-08T12:42:26;18.50;85.40
68235;DHT22;55052;52.056;5.296;2023-10-08T12:44:53;18.40;85.00
68235;DHT22;55052;52.056;5.296;2023-10-08T12:47:24;18.40;84.90
68235;DHT22;55052;52.056;5.296;2023-10-08T12:49:55;18.40;85.00
68235;DHT22;55052;52.056;5.296;2023-10-08T12:52:24;18.40;84.80
68235;DHT22;55052;52.056;5.296;2023-10-08T12:54:54;18.40;85.00
68235;DHT22;55052;52.056;5.296;2023-10-08T12:57:22;18.50;85.20
68235;DHT22;55052;52.056;5.296;2023-10-08T12:59:59;18.50;85.30
68235;DHT22;55052;52.056;5.296;2023-10-08T13:02:26;18.50;85.30
68235;DHT22;55052;52.056;5.296;2023-10-08T13:04:55;18.60;85.20
68235;DHT22;55052;52.056;5.296;2023-10-08T13:07:24;18.60;85.00
68235;DHT22;55052;52.056;5.296;2023-10-08T13:09:53;18.60;85.10
68235;DHT22;55052;52.056;5.296;2023-10-08T13:12:20;18.70;85.10
68235;DHT22;55052;52.056;5.296;2023-10-08T13:14:47;18.70;84.90
68235;DHT22;55052;52.056;5.296;2023-10-08T13:17:14;18.70;84.90
68235;DHT22;55052;52.056;5.296;2023-10-08T13:19:41;18.70;84.70
68235;DHT22;55052;52.056;5.296;2023-10-08T13:22:08;18.70;84.50
68235;DHT22;55052;52.056;5.296;2023-10-08T13:24:35;18.70;84.50
68235;DHT22;55052;52.056;5.296;2023-10-08T13:27:08;18.70;84.60
68235;DHT22;55052;52.056;5.296;2023-10-08T13:29:35;18.70;84.60
68235;DHT22;55052;52.056;5.296;2023-10-08T13:32:02;18.70;84.60
68235;DHT22;55052;52.056;5.296;2023-10-08T13:34:31;18.70;84.60
68235;DHT22;55052;52.056;5.296;2023-10-08T13:36:58;18.70;84.80
68235;DHT22;55052;52.056;5.296;2023-10-08T13:39:24;18.70;84.70
68235;DHT22;55052;52.056;5.296;2023-10-08T13:41:53;18.70;84.80
68235;DHT22;55052;52.056;5.296;2023-10-08T13:44:23;18.70;84.80
68235;DHT22;55052;52.056;5.296;2023-10-08T13:46:57;18.70;84.70
68235;DHT22;55052;52.056;5.296;2023-10-08T13:49:26;18.70;84.70
68235;DHT22;55052;52.056;5.296;2023-10-08T13:51:53;18.70;84.70
68235;DHT22;55052;52.056;5.296;2023-10-08T13:54:24;18.80;84.80
68235;DHT22;55052;52.056;5.296;2023-10-08T13:56:57;18.80;84.70
68235;DHT22;55052;52.056;5.296;2023-10-08T13:59:26;18.80;84.60
68235;DHT22;55052;52.056;5.296;2023-10-08T14:01:53;18.80;84.60
68235;DHT22;55052;52.056;5.296;2023-10-08T14:04:21;18.80;84.70
68235;DHT22;55052;52.056;5.296;2023-10-08T14:06:57;18.90;84.80
68235;DHT22;55052;52.056;5.296;2023-10-08T14:09:25;18.80;84.70
68235;DHT22;55052;52.056;5.296;2023-10-08T14:11:59;18.80;84.70
68235;DHT22;55052;52.056;5.296;2023-10-08T14:14:27;18.80;84.70
68235;DHT22;55052;52.056;5.296;2023-10-08T14:17:00;18.90;84.70
68235;DHT22;55052;52.056;5.296;2023-10-08T14:19:35;18.80;84.60
68235;DHT22;55052;52.056;5.296;2023-10-08T14:22:26;18.90;84.70
68235;DHT22;55052;52.056;5.296;2023-10-08T14:24:53;18.90;84.90
68235;DHT22;55052;52.056;5.296;2023-10-08T14:27:27;18.90;84.90
68235;DHT22;55052;52.056;5.296;2023-10-08T14:29:59;18.90;85.00
68235;DHT22;55052;52.056;5.296;2023-10-08T14:32:28;18.90;85.00
68235;DHT22;55052;52.056;5.296;2023-10-08T14:34:55;18.90;85.80
68235;DHT22;55052;52.056;5.296;2023-10-08T14:37:22;18.90;84.90
68235;DHT22;55052;52.056;5.296;2023-10-08T14:40:08;18.90;84.90
68235;DHT22;55052;52.056;5.296;2023-10-08T14:42:54;18.90;85.00
68235;DHT22;55052;52.056;5.296;2023-10-08T14:45:30;18.90;85.00
68235;DHT22;55052;52.056;5.296;2023-10-08T14:47:58;18.90;85.00
68235;DHT22;55052;52.056;5.296;2023-10-08T14:50:26;18.90;84.90
68235;DHT22;55052;52.056;5.296;2023-10-08T14:53:00;18.90;84.90
68235;DHT22;55052;52.056;5.296;2023-10-08T14:55:32;18.90;84.90
68235;DHT22;55052;52.056;5.296;2023-10-08T14:58:04;18.90;84.90
68235;DHT22;55052;52.056;5.296;2023-10-08T15:00:35;18.80;84.80
68235;DHT22;55052;52.056;5.296;2023-10-08T15:03:03;18.80;84.80
68235;DHT22;55052;52.056;5.296;2023-10-08T15:05:30;18.80;84.80
68235;DHT22;55052;52.056;5.296;2023-10-08T15:07:57;18.80;84.90
68235;DHT22;55052;52.056;5.296;2023-10-08T15:10:24;18.80;84.90
68235;DHT22;55052;52.056;5.296;2023-10-08T15:12:52;18.80;84.90
68235;DHT22;55052;52.056;5.296;2023-10-08T15:15:20;18.80;84.90
68235;DHT22;55052;52.056;5.296;2023-10-08T15:17:51;18.80;84.90
68235;DHT22;55052;52.056;5.296;2023-10-08T15:20:18;18.80;84.90
68235;DHT22;55052;52.056;5.296;2023-10-08T15:22:47;18.80;85.00
68235;DHT22;55052;52.056;5.296;2023-10-08T15:25:16;18.80;85.10
68235;DHT22;55052;52.056;5.296;2023-10-08T15:27:44;18.80;85.20
68235;DHT22;55052;52.056;5.296;2023-10-08T15:30:15;18.80;85.20
68235;DHT22;55052;52.056;5.296;2023-10-08T15:32:43;18.80;85.20
68235;DHT22;55052;52.056;5.296;2023-10-08T15:35:12;18.80;85.30
68235;DHT22;55052;52.056;5.296;2023-10-08T15:37:41;18.80;85.30
68235;DHT22;55052;52.056;5.296;2023-10-08T15:40:09;18.80;85.30
68235;DHT22;55052;52.056;5.296;2023-10-08T15:42:53;18.80;85.30
68235;DHT22;55052;52.056;5.296;2023-10-08T15:45:22;18.80;85.30
68235;DHT22;55052;52.056;5.296;2023-10-08T15:47:50;18.70;85.30
68235;DHT22;55052;52.056;5.296;2023-10-08T15:50:20;18.80;85.40
68235;DHT22;55052;52.056;5.296;2023-10-08T15:52:49;18.70;85.50
68235;DHT22;55052;52.056;5.296;2023-10-08T15:55:17;18.70;85.50
68235;DHT22;55052;52.056;5.296;2023-10-08T15:57:44;18.70;85.50
68235;DHT22;55052;52.056;5.296;2023-10-08T16:00:12;18.70;85.60
68235;DHT22;55052;52.056;5.296;2023-10-08T16:02:40;18.70;85.60
68235;DHT22;55052;52.056;5.296;2023-10-08T16:05:07;18.70;85.60